Time;durP1;ratioP1;P1;durP2;ratioP2;P2;SDS_P1;SDS_P2;PMS_P1;PMS_P2;Temp;Humidity;BMP_temperature;BMP_pressure;BME280_temperature;BME280_humidity;BME280_pressure;Samples;Min_cycle;Max_cycle;Signal;HPM_P1;HPM_P2
2022/08/01 00:00:06;;;;;;;12.80;8.32;;;18.60;99.90;;;;;;5102949;28;20046;-67
2022/08/01 00:02:32;;;;;;;15.05;9.65;;;18.60;99.90;;;;;;5084079;28;20058;-68
2022/08/01 00:04:58;;;;;;;15.57;8.60;;;18.50;99.90;;;;;;5080443;28;20408;-67
2022/08/01 00:07:23;;;;;;;14.80;8.45;;;18.40;99.90;;;;;;5079972;28;20048;-67
2022/08/01 00:09:49;;;;;;;12.07;7.68;;;18.50;99.90;;;;;;5080689;28;20068;-68
2022/08/01 00:12:15;;;;;;;14.48;7.75;;;18.40;99.90;;;;;;5075575;28;20048;-68
2022/08/01 00:14:40;;;;;;;10.73;7.68;;;18.40;99.90;;;;;;5100968;28;20062;-67
2022/08/01 00:17:06;;;;;;;14.10;7.60;;;18.30;99.90;;;;;;5094596;28;20041;-68
2022/08/01 00:19:32;;;;;;;14.95;8.48;;;18.30;99.90;;;;;;5102729;28;20040;-68
2022/08/01 00:21:58;;;;;;;15.23;7.25;;;18.40;99.90;;;;;;5070715;28;20041;-67
2022/08/01 00:24:24;;;;;;;10.75;7.28;;;18.30;99.90;;;;;;5082486;28;20052;-67
2022/08/01 00:26:49;;;;;;;11.55;6.85;;;18.30;99.90;;;;;;5086475;28;20044;-67
2022/08/01 00:29:15;;;;;;;14.50;7.28;;;18.20;99.90;;;;;;5082814;28;20036;-68
2022/08/01 00:31:41;;;;;;;12.55;7.18;;;18.20;99.90;;;;;;5086243;28;20043;-68
2022/08/01 00:34:06;;;;;;;9.93;7.55;;;18.20;99.90;;;;;;5080444;28;20047;-68
2022/08/01 00:36:32;;;;;;;12.68;8.13;;;18.20;99.90;;;;;;5074644;28;20054;-68
2022/08/01 00:38:58;;;;;;;15.25;8.88;;;18.20;99.90;;;;;;5069407;28;20044;-68
2022/08/01 00:41:23;;;;;;;10.40;6.90;;;18.10;99.90;;;;;;5075156;28;20071;-68
2022/08/01 00:43:49;;;;;;;16.52;8.95;;;18.20;99.90;;;;;;5074680;28;20044;-68
2022/08/01 00:46:15;;;;;;;13.75;8.07;;;18.20;99.90;;;;;;5077962;28;20048;-68
2022/08/01 00:48:41;;;;;;;14.73;8.85;;;18.10;99.90;;;;;;5084853;28;20044;-68
2022/08/01 00:51:07;;;;;;;16.25;8.25;;;18.10;99.90;;;;;;5077349;28;20048;-68
2022/08/01 00:53:34;;;;;;;16.42;9.20;;;18.00;99.90;;;;;;5094187;28;20420;-68
2022/08/01 00:56:01;;;;;;;17.52;8.43;;;18.20;99.90;;;;;;5080642;28;20045;-68
2022/08/01 00:58:30;;;;;;;13.68;8.85;;;18.10;99.90;;;;;;5084293;28;20055;-67
2022/08/01 01:00:56;;;;;;;16.90;8.93;;;18.10;99.90;;;;;;5072754;28;20040;-68
2022/08/01 01:03:23;;;;;;;16.30;9.38;;;18.00;99.90;;;;;;5095935;28;20051;-68
2022/08/01 01:05:59;;;;;;;16.80;9.65;;;18.10;99.90;;;;;;5090323;28;20040;-68
2022/08/01 01:08:31;;;;;;;17.40;9.55;;;18.10;99.90;;;;;;5107024;28;20058;-67
2022/08/01 01:11:29;;;;;;;13.43;9.18;;;18.10;99.90;;;;;;5071073;28;20037;-68
2022/08/01 01:14:10;;;;;;;18.55;9.05;;;18.10;99.90;;;;;;5059068;28;20121;-68
2022/08/01 01:16:38;;;;;;;17.27;8.95;;;18.00;99.90;;;;;;5089887;28;20137;-68
2022/08/01 01:19:08;;;;;;;17.23;8.57;;;18.10;99.90;;;;;;5080956;28;20040;-68
2022/08/01 01:22:13;;;;;;;15.82;9.23;;;18.10;99.90;;;;;;5098571;28;20122;-68
2022/08/01 01:25:09;;;;;;;14.38;8.60;;;18.00;99.90;;;;;;5103431;28;20044;-67
2022/08/01 01:27:53;;;;;;;12.77;7.65;;;18.00;99.90;;;;;;5101611;28;20036;-67
2022/08/01 01:30:21;;;;;;;13.80;7.93;;;18.10;99.90;;;;;;5079937;28;20052;-67
2022/08/01 01:32:51;;;;;;;15.43;8.40;;;18.00;99.90;;;;;;5072240;28;20128;-67
2022/08/01 01:35:24;;;;;;;12.38;7.63;;;18.10;99.90;;;;;;5088735;28;20044;-67
2022/08/01 01:37:57;;;;;;;15.40;7.80;;;18.10;99.90;;;;;;5077918;28;20054;-67
2022/08/01 01:40:25;;;;;;;11.80;7.07;;;18.10;99.90;;;;;;5083245;28;20458;-67
2022/08/01 01:42:51;;;;;;;11.52;6.05;;;18.10;99.90;;;;;;5105475;28;20048;-67
2022/08/01 01:45:18;;;;;;;11.52;6.70;;;18.00;99.90;;;;;;5082342;28;20131;-68
2022/08/01 01:47:45;;;;;;;9.95;6.32;;;18.00;99.90;;;;;;5087039;28;20087;-67
2022/08/01 01:50:12;;;;;;;8.95;6.38;;;18.00;99.90;;;;;;5077472;28;20049;-67
2022/08/01 01:52:40;;;;;;;10.57;5.90;;;18.10;99.90;;;;;;5071018;28;20206;-67
2022/08/01 01:55:08;;;;;;;10.60;6.20;;;18.00;99.90;;;;;;5084857;28;20092;-67
2022/08/01 01:57:40;;;;;;;8.05;5.15;;;18.10;99.90;;;;;;5094924;28;20045;-67
2022/08/01 02:00:08;;;;;;;10.25;6.47;;;18.10;99.90;;;;;;5097747;28;20032;-67
2022/08/01 02:02:36;;;;;;;14.13;6.35;;;18.00;99.90;;;;;;5076165;28;20519;-67
2022/08/01 02:05:02;;;;;;;14.27;6.53;;;18.10;99.90;;;;;;5070289;28;20048;-67
2022/08/01 02:07:29;;;;;;;9.90;6.53;;;18.10;99.90;;;;;;5073309;28;20070;-67
2022/08/01 02:09:56;;;;;;;12.25;7.55;;;18.10;99.90;;;;;;5089257;28;20124;-67
2022/08/01 02:12:22;;;;;;;11.05;5.90;;;18.10;99.90;;;;;;5086406;28;20051;-67
2022/08/01 02:14:49;;;;;;;10.40;6.32;;;18.10;99.90;;;;;;5063553;28;20048;-67
2022/08/01 02:17:20;;;;;;;10.30;5.47;;;18.00;99.90;;;;;;5102763;28;20071;-67
2022/08/01 02:19:46;;;;;;;10.98;5.65;;;18.10;99.90;;;;;;5082579;28;20048;-67
2022/08/01 02:22:27;;;;;;;8.90;5.80;;;18.10;99.90;;;;;;5090822;28;20122;-67
2022/08/01 02:25:02;;;;;;;9.10;4.85;;;18.00;99.90;;;;;;5093240;28;20104;-67
2022/08/01 02:27:53;;;;;;;6.63;4.63;;;18.10;99.90;;;;;;5080984;28;20098;-67
2022/08/01 02:30:19;;;;;;;9.75;4.82;;;18.20;99.90;;;;;;5063637;28;20053;-67
2022/08/01 02:32:54;;;;;;;8.45;4.13;;;18.10;99.90;;;;;;5077457;28;20576;-67
2022/08/01 02:35:32;;;;;;;8.85;3.80;;;18.10;99.90;;;;;;5076217;28;20052;-67
2022/08/01 02:38:01;;;;;;;6.90;4.15;;;18.10;99.90;;;;;;5077299;28;20377;-67
2022/08/01 02:40:29;;;;;;;11.07;3.58;;;18.10;99.90;;;;;;5079491;28;20095;-67
2022/08/01 02:42:56;;;;;;;9.02;3.75;;;18.10;99.90;;;;;;5085179;28;20496;-67
2022/08/01 02:45:25;;;;;;;8.00;3.80;;;18.20;99.90;;;;;;5074039;28;20037;-67
2022/08/01 02:47:55;;;;;;;6.50;3.15;;;18.10;99.90;;;;;;5088414;28;20052;-67
2022/08/01 02:50:23;;;;;;;9.10;2.92;;;18.10;99.90;;;;;;5097302;28;20044;-67
2022/08/01 02:52:52;;;;;;;6.95;3.47;;;18.10;99.90;;;;;;5080453;28;20049;-67
2022/08/01 02:55:19;;;;;;;6.93;2.78;;;18.00;99.90;;;;;;5102093;28;20064;-67
2022/08/01 02:57:47;;;;;;;5.18;2.60;;;17.90;99.90;;;;;;5080275;28;20049;-67
2022/08/01 03:00:16;;;;;;;6.75;2.90;;;17.90;99.90;;;;;;5097147;28;20102;-67
2022/08/01 03:02:44;;;;;;;7.78;3.08;;;17.90;99.90;;;;;;5086507;28;20059;-67
2022/08/01 03:05:14;;;;;;;7.53;2.90;;;18.00;99.90;;;;;;5072504;28;20093;-67
2022/08/01 03:07:42;;;;;;;7.53;3.20;;;17.90;99.90;;;;;;5075245;28;20040;-67
2022/08/01 03:10:10;;;;;;;7.78;2.75;;;17.90;99.90;;;;;;5096480;28;20044;-68
2022/08/01 03:12:37;;;;;;;9.15;2.67;;;17.80;99.90;;;;;;5075179;28;20060;-68
2022/08/01 03:15:04;;;;;;;5.57;2.55;;;17.80;99.90;;;;;;5097278;28;20040;-68
2022/08/01 03:17:31;;;;;;;5.25;2.70;;;17.90;99.90;;;;;;5077333;28;20504;-68
2022/08/01 03:20:00;;;;;;;11.70;2.80;;;17.80;99.90;;;;;;5079467;28;20115;-68
2022/08/01 03:22:29;;;;;;;5.47;2.78;;;17.70;99.90;;;;;;5078280;28;20128;-68
2022/08/01 03:24:59;;;;;;;7.97;2.80;;;17.60;99.90;;;;;;5079596;28;20493;-68
2022/08/01 03:27:25;;;;;;;11.75;2.60;;;17.70;99.90;;;;;;5077420;28;20500;-68
2022/08/01 03:29:54;;;;;;;9.75;3.13;;;17.70;99.90;;;;;;5081899;28;20121;-68
2022/08/01 03:32:21;;;;;;;6.82;2.72;;;17.70;99.90;;;;;;5082653;28;20048;-68
2022/08/01 03:34:47;;;;;;;11.30;3.17;;;17.60;99.90;;;;;;5080022;28;20064;-68
2022/08/01 03:37:45;;;;;;;4.68;2.42;;;17.70;99.90;;;;;;5075822;28;20051;-68
2022/08/01 03:40:17;;;;;;;7.43;2.50;;;17.70;99.90;;;;;;5084237;28;20083;-68
2022/08/01 03:42:46;;;;;;;12.05;2.80;;;17.60;99.90;;;;;;5077753;28;20051;-68
2022/08/01 03:45:18;;;;;;;;;;;17.70;99.90;;;;;;5082793;28;20055;-68
2022/08/01 03:47:47;;;;;;;7.88;2.92;;;17.60;99.90;;;;;;5074189;28;19920;-68
2022/08/01 03:50:16;;;;;;;10.02;2.78;;;17.60;99.90;;;;;;5075196;28;20053;-68
2022/08/01 03:52:44;;;;;;;9.33;2.97;;;17.50;99.90;;;;;;5081657;28;20048;-68
2022/08/01 03:55:11;;;;;;;8.05;2.25;;;17.60;99.90;;;;;;5071046;28;20386;-68
2022/08/01 03:57:37;;;;;;;5.50;2.08;;;17.50;99.90;;;;;;5070373;28;20055;-68
2022/08/01 04:00:09;;;;;;;7.88;3.00;;;17.50;99.90;;;;;;5077112;28;20059;-68
2022/08/01 04:02:34;;;;;;;6.68;2.20;;;17.50;99.90;;;;;;5094447;28;20044;-68
2022/08/01 04:05:02;;;;;;;6.28;1.80;;;17.60;99.90;;;;;;5080378;28;20108;-68
2022/08/01 04:07:30;;;;;;;6.30;2.25;;;17.50;99.90;;;;;;5078891;28;20040;-68
2022/08/01 04:09:56;;;;;;;12.40;2.85;;;17.60;99.90;;;;;;5069488;28;20049;-68
2022/08/01 04:12:22;;;;;;;8.05;2.30;;;17.50;99.90;;;;;;5075670;28;20040;-68
2022/08/01 04:14:48;;;;;;;13.95;2.85;;;17.50;99.90;;;;;;5058858;28;20040;-68
2022/08/01 04:17:15;;;;;;;8.90;2.45;;;17.50;99.90;;;;;;5081520;28;20132;-68
2022/08/01 04:19:42;;;;;;;11.93;3.05;;;17.50;99.90;;;;;;5082704;28;20092;-68
2022/08/01 04:22:13;;;;;;;7.80;3.10;;;17.50;99.90;;;;;;5079656;28;20082;-68
2022/08/01 04:24:41;;;;;;;12.90;3.20;;;17.40;99.90;;;;;;5079910;28;20056;-68
2022/08/01 04:27:12;;;;;;;8.88;3.38;;;17.50;99.90;;;;;;5071061;28;20044;-68
2022/08/01 04:29:40;;;;;;;8.05;3.15;;;17.50;99.90;;;;;;5081598;28;20114;-68
2022/08/01 04:32:10;;;;;;;6.53;2.90;;;17.50;99.90;;;;;;5074651;28;20044;-68
2022/08/01 04:34:39;;;;;;;9.73;3.10;;;17.50;99.90;;;;;;5075848;28;20075;-68
2022/08/01 04:37:10;;;;;;;9.27;3.58;;;17.50;99.90;;;;;;5092269;28;20122;-68
2022/08/01 04:39:39;;;;;;;13.23;3.83;;;17.50;99.90;;;;;;5098654;28;20040;-68
2022/08/01 04:42:06;;;;;;;8.55;3.28;;;17.50;99.90;;;;;;5096537;28;20076;-68
2022/08/01 04:44:33;;;;;;;7.22;3.17;;;17.50;99.90;;;;;;5080152;28;20135;-68
2022/08/01 04:47:03;;;;;;;8.63;3.53;;;17.60;99.90;;;;;;5084249;28;20054;-68
2022/08/01 04:49:33;;;;;;;11.00;4.10;;;17.60;99.90;;;;;;5074380;28;20056;-68
2022/08/01 04:51:59;;;;;;;12.90;3.53;;;17.50;99.90;;;;;;5084385;28;20052;-68
2022/08/01 04:54:33;;;;;;;12.02;3.50;;;17.60;99.90;;;;;;5059647;28;20108;-68
2022/08/01 04:57:00;;;;;;;7.43;3.13;;;17.50;99.90;;;;;;5089625;28;20123;-68
2022/08/01 04:59:42;;;;;;;11.20;3.78;;;17.50;99.90;;;;;;5085260;28;20040;-68
2022/08/01 05:02:08;;;;;;;13.75;3.78;;;17.50;99.90;;;;;;5078968;28;20055;-68
2022/08/01 05:04:34;;;;;;;9.88;3.30;;;17.50;99.90;;;;;;5075909;28;20435;-68
2022/08/01 05:07:00;;;;;;;14.68;4.05;;;17.50;99.90;;;;;;5075090;28;20052;-68
2022/08/01 05:09:26;;;;;;;13.73;4.25;;;17.50;99.90;;;;;;5082628;28;20044;-68
2022/08/01 05:11:53;;;;;;;13.60;3.67;;;17.50;99.90;;;;;;5079967;28;20515;-68
2022/08/01 05:14:18;;;;;;;11.80;3.42;;;17.40;99.90;;;;;;5079395;28;20052;-68
2022/08/01 05:16:45;;;;;;;11.80;3.20;;;17.40;99.90;;;;;;5074494;28;20045;-68
2022/08/01 05:19:11;;;;;;;7.85;3.22;;;17.30;99.90;;;;;;5087180;28;20051;-68
2022/08/01 05:21:37;;;;;;;16.17;4.00;;;17.30;99.90;;;;;;5083336;28;20438;-68
2022/08/01 05:24:04;;;;;;;16.30;4.75;;;17.40;99.90;;;;;;5091090;28;20089;-68
2022/08/01 05:26:30;;;;;;;8.27;3.97;;;17.30;99.90;;;;;;5072515;28;20078;-68
2022/08/01 05:28:56;;;;;;;11.93;3.13;;;17.30;99.90;;;;;;5064640;28;20043;-68
2022/08/01 05:31:21;;;;;;;14.30;3.70;;;17.30;99.90;;;;;;5070243;28;20044;-68
2022/08/01 05:33:47;;;;;;;8.90;2.90;;;17.30;99.90;;;;;;5105121;28;20039;-68
2022/08/01 05:36:13;;;;;;;12.98;3.63;;;17.30;99.90;;;;;;5070997;28;20080;-68
2022/08/01 05:38:38;;;;;;;11.35;3.65;;;17.40;99.90;;;;;;5101196;28;20044;-68
2022/08/01 05:41:04;;;;;;;13.95;3.38;;;17.30;99.90;;;;;;5077165;28;20074;-68
2022/08/01 05:43:30;;;;;;;16.98;4.07;;;17.30;99.90;;;;;;5087882;28;20048;-68
2022/08/01 05:45:56;;;;;;;17.00;3.97;;;17.30;99.90;;;;;;5079135;28;20036;-68
2022/08/01 05:48:22;;;;;;;16.63;3.58;;;17.30;99.90;;;;;;5079786;28;20047;-68
2022/08/01 05:50:47;;;;;;;14.95;3.70;;;17.30;99.90;;;;;;5076433;28;20088;-68
2022/08/01 05:53:13;;;;;;;13.93;3.85;;;17.30;99.90;;;;;;5071997;28;20083;-68
2022/08/01 05:55:39;;;;;;;14.35;4.28;;;17.30;99.90;;;;;;5086620;28;20056;-68
2022/08/01 05:58:04;;;;;;;11.70;3.92;;;17.30;99.90;;;;;;5100995;28;20064;-68
2022/08/01 06:00:30;;;;;;;12.25;2.70;;;17.30;99.90;;;;;;5098675;28;20059;-68
2022/08/01 06:02:56;;;;;;;14.07;3.70;;;17.30;99.90;;;;;;5078709;28;20036;-68
2022/08/01 06:05:22;;;;;;;12.73;3.45;;;17.40;99.90;;;;;;5100608;28;20063;-68
2022/08/01 06:07:48;;;;;;;16.10;3.97;;;17.40;99.90;;;;;;5071041;28;20036;-68
2022/08/01 06:10:13;;;;;;;20.33;4.40;;;17.40;99.90;;;;;;5097222;28;20055;-68
2022/08/01 06:12:39;;;;;;;19.90;3.85;;;17.50;99.90;;;;;;5082858;28;20155;-68
2022/08/01 06:15:05;;;;;;;17.42;4.03;;;17.50;99.90;;;;;;5081114;28;20055;-68
2022/08/01 06:17:31;;;;;;;18.08;4.05;;;17.50;99.90;;;;;;5075555;28;20074;-68
2022/08/01 06:19:57;;;;;;;15.90;3.92;;;17.50;99.90;;;;;;5065405;28;20040;-68
2022/08/01 06:22:22;;;;;;;16.42;3.20;;;17.50;99.90;;;;;;5084364;28;20055;-68
2022/08/01 06:24:48;;;;;;;16.27;4.50;;;17.60;99.90;;;;;;5069473;28;20053;-68
2022/08/01 06:27:14;;;;;;;18.35;3.72;;;17.60;99.90;;;;;;5075189;28;20041;-68
2022/08/01 06:29:40;;;;;;;16.73;3.47;;;17.60;99.90;;;;;;5076371;28;20048;-68
2022/08/01 06:32:06;;;;;;;17.77;4.55;;;17.60;99.90;;;;;;5074734;28;20044;-68
2022/08/01 06:34:32;;;;;;;14.77;3.50;;;17.60;99.90;;;;;;5083948;28;20052;-68
2022/08/01 06:36:58;;;;;;;15.50;4.05;;;17.60;99.90;;;;;;5064672;28;20044;-68
2022/08/01 06:39:24;;;;;;;15.27;4.38;;;17.50;99.90;;;;;;5078840;28;20100;-68
2022/08/01 06:41:49;;;;;;;15.18;3.50;;;17.50;99.90;;;;;;5075319;28;20070;-68
2022/08/01 06:44:15;;;;;;;13.20;3.88;;;17.60;99.90;;;;;;5089193;28;20106;-68
2022/08/01 06:46:40;;;;;;;14.70;4.00;;;17.60;99.90;;;;;;5100325;28;20036;-68
2022/08/01 06:49:06;;;;;;;19.75;4.20;;;17.70;99.90;;;;;;5102567;28;20108;-68
2022/08/01 06:51:32;;;;;;;16.73;4.05;;;17.80;99.90;;;;;;5102130;28;20036;-68
2022/08/01 06:53:57;;;;;;;12.85;3.47;;;17.80;99.90;;;;;;5102647;28;20082;-68
2022/08/01 06:56:23;;;;;;;19.90;3.95;;;17.70;99.90;;;;;;5065474;28;20052;-68
2022/08/01 06:58:50;;;;;;;12.75;3.78;;;17.80;99.90;;;;;;5102236;28;20219;-68
2022/08/01 07:01:16;;;;;;;15.32;3.38;;;17.70;99.90;;;;;;5099947;28;20048;-68
2022/08/01 07:03:42;;;;;;;16.55;3.88;;;17.80;99.90;;;;;;5084519;28;20048;-68
2022/08/01 07:06:08;;;;;;;16.08;3.60;;;17.70;99.90;;;;;;5097083;28;20082;-68
2022/08/01 07:08:33;;;;;;;10.98;3.75;;;17.80;99.90;;;;;;5081882;28;20051;-68
2022/08/01 07:10:59;;;;;;;16.88;3.85;;;17.80;99.90;;;;;;5081452;28;20119;-68
2022/08/01 07:13:26;;;;;;;15.93;3.78;;;17.80;99.90;;;;;;5073536;28;20109;-68
2022/08/01 07:15:53;;;;;;;18.60;3.83;;;17.80;99.90;;;;;;5077168;28;20050;-67
2022/08/01 07:18:18;;;;;;;17.70;4.07;;;17.80;99.90;;;;;;5076800;28;20049;-68
2022/08/01 07:20:45;;;;;;;18.30;3.60;;;17.90;99.90;;;;;;5073226;28;20075;-68
2022/08/01 07:23:12;;;;;;;14.10;3.50;;;17.80;99.90;;;;;;5079518;28;20052;-68
2022/08/01 07:25:38;;;;;;;17.65;4.03;;;17.90;99.90;;;;;;5081726;28;20044;-67
2022/08/01 07:28:04;;;;;;;19.73;4.72;;;18.00;99.90;;;;;;5061450;28;20041;-68
2022/08/01 07:30:30;;;;;;;13.00;3.78;;;18.00;99.90;;;;;;5069378;28;20104;-68
2022/08/01 07:32:56;;;;;;;15.93;3.75;;;18.00;99.90;;;;;;5056113;28;20079;-68
2022/08/01 07:35:22;;;;;;;17.80;4.07;;;18.10;99.90;;;;;;5055347;28;20106;-68
2022/08/01 07:37:47;;;;;;;13.00;3.15;;;18.10;99.90;;;;;;5038587;28;20040;-68
2022/08/01 07:40:13;;;;;;;15.65;3.50;;;18.40;99.90;;;;;;5055110;28;20405;-68
2022/08/01 07:42:43;;;;;;;17.92;3.17;;;18.30;99.90;;;;;;5064663;28;20115;-68
2022/08/01 07:45:09;;;;;;;17.55;3.85;;;18.30;99.90;;;;;;5056226;28;20056;-68
2022/08/01 07:47:35;;;;;;;15.60;3.50;;;18.30;99.90;;;;;;5063280;28;20064;-68
2022/08/01 07:50:02;;;;;;;16.88;4.00;;;18.30;99.90;;;;;;5081015;28;20071;-67
2022/08/01 07:52:28;;;;;;;15.35;3.95;;;18.20;99.90;;;;;;5061043;28;20059;-67
2022/08/01 07:54:56;;;;;;;12.88;3.42;;;18.20;99.90;;;;;;5055510;28;20123;-66
2022/08/01 07:57:22;;;;;;;14.10;3.80;;;18.20;99.90;;;;;;5059021;28;20040;-67
2022/08/01 07:59:47;;;;;;;15.60;4.22;;;18.20;99.90;;;;;;5064920;28;20048;-67
2022/08/01 08:02:13;;;;;;;16.45;4.00;;;18.30;99.90;;;;;;5046495;28;20048;-66
2022/08/01 08:04:39;;;;;;;17.08;3.95;;;18.40;99.90;;;;;;5083149;28;20345;-66
2022/08/01 08:07:04;;;;;;;18.92;4.47;;;18.40;99.90;;;;;;5054879;28;20103;-67
2022/08/01 08:09:30;;;;;;;12.18;3.88;;;18.50;99.90;;;;;;5074943;28;20064;-67
2022/08/01 08:11:56;;;;;;;19.35;4.25;;;18.60;99.90;;;;;;5054827;28;20072;-68
2022/08/01 08:14:23;;;;;;;16.20;4.20;;;18.60;99.90;;;;;;5067765;28;20040;-67
2022/08/01 08:16:49;;;;;;;23.08;5.45;;;18.60;99.90;;;;;;5049079;28;20114;-68
2022/08/01 08:19:15;;;;;;;11.48;3.13;;;18.70;99.90;;;;;;5057301;28;20045;-68
2022/08/01 08:21:41;;;;;;;18.40;3.60;;;18.80;99.90;;;;;;5064161;28;20051;-67
2022/08/01 08:24:21;;;;;;;14.95;3.58;;;18.90;99.90;;;;;;5073640;28;20052;-67
2022/08/01 08:26:55;;;;;;;15.95;3.72;;;18.90;99.90;;;;;;5067703;28;20417;-67
2022/08/01 08:29:22;;;;;;;17.92;3.70;;;18.90;99.90;;;;;;5101817;28;20064;-68
2022/08/01 08:31:48;;;;;;;14.02;3.92;;;18.90;99.90;;;;;;5084412;28;20158;-68
2022/08/01 08:34:14;;;;;;;14.55;3.58;;;18.90;99.90;;;;;;5102318;28;20052;-68
2022/08/01 08:36:40;;;;;;;15.65;3.70;;;19.00;99.90;;;;;;5085755;28;20048;-67
2022/08/01 08:39:06;;;;;;;13.27;3.33;;;19.10;99.90;;;;;;5104067;28;20044;-69
2022/08/01 08:41:33;;;;;;;16.25;3.63;;;19.20;99.90;;;;;;5070273;28;20124;-70
2022/08/01 08:44:01;;;;;;;17.45;4.55;;;19.30;99.90;;;;;;5083051;28;20058;-70
2022/08/01 08:46:28;;;;;;;12.90;2.95;;;19.30;99.90;;;;;;5084176;28;20051;-70
2022/08/01 08:48:55;;;;;;;16.40;4.22;;;19.40;99.90;;;;;;5087815;28;20488;-70
2022/08/01 08:51:23;;;;;;;14.75;3.92;;;19.30;99.90;;;;;;5100536;28;20054;-67
2022/08/01 08:53:51;;;;;;;18.05;3.30;;;19.40;99.90;;;;;;5048266;28;20135;-69
2022/08/01 08:56:18;;;;;;;16.92;3.10;;;19.30;99.90;;;;;;5049353;28;20044;-67
2022/08/01 08:58:45;;;;;;;16.45;3.08;;;19.30;99.90;;;;;;5072666;28;20071;-67
2022/08/01 09:01:12;;;;;;;16.17;2.70;;;19.20;99.90;;;;;;5094375;28;20040;-68
2022/08/01 09:03:38;;;;;;;12.82;2.83;;;19.30;99.90;;;;;;5069838;28;20292;-67
2022/08/01 09:06:04;;;;;;;12.60;3.63;;;19.40;99.90;;;;;;5083368;28;20047;-67
2022/08/01 09:08:30;;;;;;;19.17;3.80;;;19.40;99.90;;;;;;5073490;28;20048;-67
2022/08/01 09:10:56;;;;;;;14.45;3.45;;;19.60;99.90;;;;;;5078486;28;20040;-68
2022/08/01 09:13:21;;;;;;;13.48;3.13;;;19.60;99.90;;;;;;5081655;28;20044;-67
2022/08/01 09:15:53;;;;;;;10.13;3.28;;;19.80;99.90;;;;;;5066388;28;20051;-67
2022/08/01 09:18:35;;;;;;;12.75;2.72;;;19.90;99.90;;;;;;5083545;28;20048;-68
2022/08/01 09:21:14;;;;;;;11.05;3.03;;;20.10;99.90;;;;;;5072848;28;20127;-67
2022/08/01 09:23:51;;;;;;;12.53;2.47;;;20.10;99.90;;;;;;5048685;28;20046;-68
2022/08/01 09:26:36;;;;;;;9.43;3.15;;;20.30;99.90;;;;;;5065255;28;20084;-68
2022/08/01 09:29:04;;;;;;;15.52;3.10;;;20.40;99.90;;;;;;5080566;28;20041;-68
2022/08/01 09:31:42;;;;;;;14.27;3.05;;;20.50;99.90;;;;;;5063881;28;20052;-68
2022/08/01 09:34:09;;;;;;;9.45;3.08;;;20.40;99.90;;;;;;5054670;28;20088;-68
2022/08/01 09:36:54;;;;;;;9.60;3.15;;;20.30;99.90;;;;;;5064819;28;20126;-68
2022/08/01 09:39:25;;;;;;;13.90;2.78;;;20.30;99.90;;;;;;5059431;28;20516;-68
2022/08/01 09:41:53;;;;;;;10.82;2.75;;;20.30;99.90;;;;;;5053357;28;20177;-67
2022/08/01 09:44:20;;;;;;;10.48;2.58;;;20.40;99.90;;;;;;5064955;28;20489;-68
2022/08/01 09:46:50;;;;;;;12.20;3.40;;;20.50;99.90;;;;;;5059628;28;20044;-68
2022/08/01 09:49:30;;;;;;;11.27;2.88;;;20.60;99.90;;;;;;5067308;28;20110;-68
2022/08/01 09:51:57;;;;;;;12.05;3.13;;;20.60;99.90;;;;;;5073512;28;20041;-68
2022/08/01 09:54:32;;;;;;;12.65;2.75;;;20.60;99.90;;;;;;5064699;28;20056;-68
2022/08/01 09:57:09;;;;;;;11.38;2.80;;;20.70;99.90;;;;;;5058714;28;20998;-68
2022/08/01 09:59:41;;;;;;;12.75;3.15;;;20.80;99.90;;;;;;5078015;28;20107;-68
2022/08/01 10:02:10;;;;;;;8.50;2.60;;;20.90;99.90;;;;;;5081097;28;20546;-68
2022/08/01 10:04:36;;;;;;;12.98;2.08;;;20.70;99.90;;;;;;5064725;28;20059;-68
2022/08/01 10:07:07;;;;;;;10.80;2.60;;;20.70;99.90;;;;;;5080604;28;20076;-68
2022/08/01 10:09:36;;;;;;;14.70;2.47;;;20.70;99.90;;;;;;5036445;28;20045;-68
2022/08/01 10:12:03;;;;;;;9.27;2.67;;;20.60;99.90;;;;;;5081549;28;20106;-68
2022/08/01 10:14:29;;;;;;;9.20;2.00;;;20.70;99.90;;;;;;5053383;28;20067;-68
2022/08/01 10:17:00;;;;;;;8.35;1.98;;;20.80;99.90;;;;;;5071620;28;20151;-68
2022/08/01 10:19:27;;;;;;;9.60;1.77;;;20.80;99.90;;;;;;5060707;28;20520;-68
2022/08/01 10:21:54;;;;;;;6.47;2.28;;;20.80;99.90;;;;;;5068419;28;20414;-67
2022/08/01 10:24:21;;;;;;;9.48;2.05;;;21.00;99.90;;;;;;5058948;28;20044;-68
2022/08/01 10:27:08;;;;;;;9.60;2.35;;;21.00;99.90;;;;;;5072007;28;20044;-68
2022/08/01 10:29:46;;;;;;;8.85;1.83;;;21.10;99.90;;;;;;5055318;28;20045;-68
2022/08/01 10:32:12;;;;;;;11.00;2.20;;;21.00;99.90;;;;;;5060578;28;20048;-68
2022/08/01 10:34:38;;;;;;;8.30;2.60;;;21.00;99.90;;;;;;5058577;28;20044;-68
2022/08/01 10:37:05;;;;;;;7.10;2.10;;;21.00;99.90;;;;;;5073961;28;20058;-68
2022/08/01 10:39:32;;;;;;;10.02;2.25;;;21.00;99.90;;;;;;5058807;28;20410;-67
2022/08/01 10:41:59;;;;;;;10.55;2.55;;;21.00;99.90;;;;;;5051651;28;20047;-68
2022/08/01 10:44:25;;;;;;;13.93;2.92;;;21.20;99.90;;;;;;5078619;28;20048;-67
2022/08/01 10:46:57;;;;;;;11.90;2.08;;;21.30;99.90;;;;;;5075699;28;20106;-68
2022/08/01 10:49:28;;;;;;;10.02;2.17;;;21.20;99.90;;;;;;5060136;28;20116;-67
2022/08/01 10:51:55;;;;;;;9.32;1.90;;;21.20;99.90;;;;;;5079861;28;20036;-68
2022/08/01 10:54:24;;;;;;;12.32;2.67;;;21.20;99.90;;;;;;5057014;28;20053;-67
2022/08/01 10:56:51;;;;;;;9.98;1.90;;;21.30;99.90;;;;;;5073272;28;20044;-68
2022/08/01 10:59:24;;;;;;;9.40;2.45;;;21.20;99.90;;;;;;5078912;28;20618;-67
2022/08/01 11:02:01;;;;;;;11.85;2.20;;;21.10;99.90;;;;;;5069047;28;20051;-68
2022/08/01 11:04:32;;;;;;;6.30;1.83;;;21.10;99.90;;;;;;5053817;28;20100;-68
2022/08/01 11:07:07;;;;;;;8.02;2.35;;;21.10;99.90;;;;;;5068062;28;20041;-68
2022/08/01 11:09:41;;;;;;;7.30;1.80;;;21.20;99.90;;;;;;5055457;28;20075;-68
2022/08/01 11:12:15;;;;;;;6.22;1.83;;;21.30;99.90;;;;;;5074721;28;20040;-68
2022/08/01 11:14:58;;;;;;;14.15;2.35;;;21.40;99.90;;;;;;5056644;28;20048;-68
2022/08/01 11:17:33;;;;;;;6.85;1.60;;;21.40;99.90;;;;;;5065791;28;20040;-68
2022/08/01 11:20:12;;;;;;;10.77;1.88;;;21.40;99.90;;;;;;5065182;28;20044;-67
2022/08/01 11:23:04;;;;;;;7.65;1.80;;;21.40;99.90;;;;;;5064730;28;20491;-68
2022/08/01 11:25:36;;;;;;;7.35;1.88;;;21.40;99.90;;;;;;5043177;28;20098;-68
2022/08/01 11:28:17;;;;;;;9.85;2.35;;;21.50;99.90;;;;;;5065955;28;20503;-68
2022/08/01 11:30:45;;;;;;;7.38;1.90;;;21.70;99.90;;;;;;5062262;28;20067;-68
2022/08/01 11:33:12;;;;;;;6.57;1.65;;;21.70;99.90;;;;;;5073794;28;20048;-68
2022/08/01 11:36:10;;;;;;;6.28;2.10;;;21.60;99.90;;;;;;5065280;28;20071;-68
2022/08/01 11:38:41;;;;;;;8.55;1.90;;;21.60;99.90;;;;;;5096595;28;20050;-67
2022/08/01 11:41:25;;;;;;;7.72;1.90;;;21.70;99.90;;;;;;5039231;28;20067;-67
2022/08/01 11:43:58;;;;;;;9.68;2.03;;;21.80;99.90;;;;;;5072356;28;20048;-67
2022/08/01 11:47:03;;;;;;;10.02;2.17;;;21.80;99.90;;;;;;5049656;28;20075;-68
2022/08/01 11:49:40;;;;;;;6.63;2.25;;;21.80;99.90;;;;;;5049227;28;20087;-68
2022/08/01 11:52:08;;;;;;;9.38;1.65;;;21.90;99.90;;;;;;5056852;28;20052;-68
2022/08/01 11:54:47;;;;;;;7.93;2.00;;;22.00;99.90;;;;;;5068706;28;20396;-67
2022/08/01 11:57:39;;;;;;;9.43;1.75;;;22.10;99.90;;;;;;5078075;28;20051;-69
2022/08/01 12:00:11;;;;;;;11.05;2.60;;;22.30;99.90;;;;;;5064369;28;20052;-68
2022/08/01 12:02:37;;;;;;;5.55;1.63;;;22.50;99.90;;;;;;5073333;28;20076;-68
2022/08/01 12:05:06;;;;;;;7.13;1.40;;;22.60;99.90;;;;;;5066707;28;20290;-68
2022/08/01 12:07:33;;;;;;;;;;;22.60;99.90;;;;;;5082557;28;20123;-68
2022/08/01 12:10:05;;;;;;;10.95;1.90;;;22.50;99.90;;;;;;5075016;28;19943;-68
2022/08/01 12:12:32;;;;;;;8.88;1.80;;;22.30;99.90;;;;;;5070463;28;20052;-67
2022/08/01 12:15:03;;;;;;;7.97;2.05;;;22.20;99.90;;;;;;5081923;28;20045;-68
2022/08/01 12:17:29;;;;;;;6.82;2.53;;;22.10;99.90;;;;;;5066754;28;20083;-68
2022/08/01 12:19:55;;;;;;;7.00;1.80;;;22.20;99.90;;;;;;5050046;28;20049;-68
2022/08/01 12:22:23;;;;;;;7.68;1.85;;;22.20;99.90;;;;;;5072938;28;20048;-68
2022/08/01 12:24:48;;;;;;;7.65;1.95;;;22.10;99.90;;;;;;5051097;28;20064;-68
2022/08/01 12:27:25;;;;;;;7.65;2.15;;;22.20;99.90;;;;;;5047392;28;20068;-68
2022/08/01 12:29:51;;;;;;;8.73;1.77;;;22.30;99.90;;;;;;5060504;28;20117;-68
2022/08/01 12:32:30;;;;;;;4.78;1.77;;;22.30;99.90;;;;;;5062087;28;20043;-68
2022/08/01 12:35:03;;;;;;;8.77;1.63;;;22.20;99.90;;;;;;5063755;28;20052;-68
2022/08/01 12:37:28;;;;;;;8.25;2.03;;;22.00;99.90;;;;;;5069446;28;20048;-68
2022/08/01 12:39:55;;;;;;;5.72;1.50;;;22.00;99.90;;;;;;5065215;28;20051;-68
2022/08/01 12:42:21;;;;;;;7.60;1.50;;;22.00;99.90;;;;;;5082718;28;20044;-68
2022/08/01 12:44:51;;;;;;;7.60;1.75;;;22.20;99.90;;;;;;5075450;28;20079;-68
2022/08/01 12:47:18;;;;;;;7.55;1.48;;;22.00;99.90;;;;;;5072289;28;20408;-68
2022/08/01 12:49:45;;;;;;;7.18;1.50;;;21.90;99.90;;;;;;5062122;28;20064;-68